Time;durP1;ratioP1;P1;durP2;ratioP2;P2;SDS_P1;SDS_P2;PMS_P1;PMS_P2;Temp;Humidity;BMP_temperature;BMP_pressure;BME280_temperature;BME280_humidity;BME280_pressure;Samples;Min_cycle;Max_cycle;Signal;HPM_P1;HPM_P2
2021/12/06 00:00:10;;;;;;;;;9.00;7.40;;;;;3.72;82.20;99347.13;5046450;28;8849;-54
2021/12/06 00:02:38;;;;;;;;;9.00;8.20;;;;;3.70;82.28;99347.34;5046828;28;8880;-54
2021/12/06 00:05:06;;;;;;;;;14.00;12.40;;;;;3.67;82.55;99346.56;5046072;28;8850;-54
2021/12/06 00:07:34;;;;;;;;;3.00;3.00;;;;;3.67;82.09;99350.16;5048362;28;8838;-54
2021/12/06 00:10:02;;;;;;;;;10.40;9.40;;;;;3.64;82.66;99345.91;5048999;28;8989;-54
2021/12/06 00:12:30;;;;;;;;;5.60;5.60;;;;;3.61;82.22;99350.50;5049904;28;8854;-54
2021/12/06 00:14:57;;;;;;;;;9.20;8.60;;;;;3.55;82.19;99351.72;5043775;28;8852;-54
2021/12/06 00:17:25;;;;;;;;;15.40;13.80;;;;;3.49;82.34;99357.38;5028439;28;8967;-54
2021/12/06 00:19:53;;;;;;;;;14.00;12.80;;;;;3.42;82.49;99353.41;5029159;28;8849;-55
2021/12/06 00:22:23;;;;;;;;;7.00;7.00;;;;;3.32;83.10;99351.44;5029503;28;8840;-54
2021/12/06 00:24:50;;;;;;;;;12.00;11.60;;;;;3.22;83.41;99345.88;5030406;28;8844;-54
2021/12/06 00:27:18;;;;;;;;;8.60;7.80;;;;;3.12;83.16;99347.38;5029297;28;8856;-54
2021/12/06 00:29:46;;;;;;;;;7.80;6.40;;;;;3.04;83.29;99351.38;5030522;28;8840;-54
2021/12/06 00:32:13;;;;;;;;;4.20;3.00;;;;;2.95;83.20;99355.38;5028185;28;8841;-54
2021/12/06 00:34:42;;;;;;;;;11.80;10.40;;;;;2.86;83.63;99355.06;5030133;28;8872;-54
2021/12/06 00:37:18;;;;;;;;;10.20;9.40;;;;;2.76;83.17;99362.66;5029803;28;8848;-54
2021/12/06 00:39:46;;;;;;;;;10.00;7.60;;;;;2.67;83.57;99373.69;5028911;28;8898;-54
2021/12/06 00:42:13;;;;;;;;;7.00;6.40;;;;;2.59;84.18;99370.63;5028980;28;8989;-54
2021/12/06 00:44:41;;;;;;;;;7.80;7.00;;;;;2.52;83.66;99382.47;5034826;28;8911;-54
2021/12/06 00:47:09;;;;;;;;;9.80;9.80;;;;;2.45;83.73;99374.97;5049239;28;8877;-54
2021/12/06 00:49:37;;;;;;;;;9.00;7.40;;;;;2.40;84.29;99377.88;5048175;28;8982;-54
2021/12/06 00:52:04;;;;;;;;;7.80;6.60;;;;;2.35;84.36;99377.28;5048553;28;8853;-54
2021/12/06 00:54:34;;;;;;;;;8.00;6.80;;;;;2.30;84.76;99379.31;5049887;28;8839;-54
2021/12/06 00:57:02;;;;;;;;;6.00;3.20;;;;;2.27;85.10;99368.97;5049721;28;8927;-54
2021/12/06 00:59:30;;;;;;;;;6.80;6.20;;;;;2.23;84.26;99383.22;5049978;28;8870;-54
2021/12/06 01:02:00;;;;;;;;;7.80;7.80;;;;;2.18;84.06;99390.50;5049301;28;8834;-54
2021/12/06 01:04:28;;;;;;;;;6.60;5.20;;;;;2.14;84.60;99390.75;5048590;28;8978;-54
2021/12/06 01:06:56;;;;;;;;;6.40;6.40;;;;;2.08;84.96;99394.56;5049307;28;8846;-54
2021/12/06 01:09:23;;;;;;;;;8.20;7.00;;;;;2.03;84.48;99399.19;5048278;28;8928;-54
2021/12/06 01:11:51;;;;;;;;;5.20;5.20;;;;;1.95;84.45;99404.03;5049539;28;8955;-54
2021/12/06 01:14:19;;;;;;;;;6.60;6.60;;;;;1.91;84.84;99418.22;5045964;28;8915;-54
2021/12/06 01:16:46;;;;;;;;;7.80;6.80;;;;;1.87;85.11;99427.19;5028211;28;8844;-54
2021/12/06 01:19:14;;;;;;;;;9.00;9.00;;;;;1.86;85.01;99424.66;5028246;28;8845;-54
2021/12/06 01:21:48;;;;;;;;;12.00;9.20;;;;;1.83;85.01;99425.66;5029229;28;8844;-54
2021/12/06 01:24:17;;;;;;;;;6.20;5.80;;;;;1.80;85.47;99430.22;5028103;28;8886;-54
2021/12/06 01:27:06;;;;;;;;;7.20;4.40;;;;;1.77;85.12;99433.00;5031577;28;8852;-54
2021/12/06 01:30:03;;;;;;;;;3.80;3.80;;;;;1.73;84.83;99437.56;5032715;28;8836;-54
2021/12/06 01:33:01;;;;;;;;;7.00;6.00;;;;;1.68;84.72;99444.00;5032730;28;8863;-54
2021/12/06 01:40:57;;;;;;;;;7.80;6.00;;;;;1.63;85.41;99452.09;5032889;28;8844;-54
2021/12/06 01:43:24;;;;;;;;;10.40;9.80;;;;;1.64;84.95;99459.03;5033205;28;8872;-54
2021/12/06 01:45:52;;;;;;;;;9.00;9.00;;;;;1.63;84.73;99449.47;5048062;28;8864;-54
2021/12/06 01:48:20;;;;;;;;;5.20;4.40;;;;;1.61;84.79;99455.72;5052112;28;8866;-54
2021/12/06 01:50:48;;;;;;;;;8.20;7.20;;;;;1.57;84.95;99460.28;5051846;28;8876;-54
2021/12/06 01:53:16;;;;;;;;;6.00;5.60;;;;;1.55;85.41;99456.91;5052479;28;9571;-54
2021/12/06 01:55:43;;;;;;;;;10.00;8.80;;;;;1.54;85.20;99459.59;5053555;28;8846;-53
2021/12/06 01:58:11;;;;;;;;;6.40;6.40;;;;;1.54;85.40;99462.22;5052330;28;8854;-54
2021/12/06 02:00:39;;;;;;;;;8.80;6.00;;;;;1.55;84.91;99471.78;5052693;28;8958;-54
2021/12/06 02:03:07;;;;;;;;;10.40;10.40;;;;;1.55;85.34;99467.41;5053050;28;9527;-55
2021/12/06 02:05:35;;;;;;;;;6.80;6.20;;;;;1.55;84.72;99469.16;5053433;28;8838;-54
2021/12/06 02:08:02;;;;;;;;;6.00;6.00;;;;;1.54;85.42;99470.94;5052784;28;8884;-54
2021/12/06 02:10:31;;;;;;;;;6.40;6.20;;;;;1.52;84.78;99472.78;5050777;28;8874;-54
2021/12/06 02:12:58;;;;;;;;;4.60;4.60;;;;;1.50;84.72;99479.88;5052933;28;8866;-54
2021/12/06 02:15:38;;;;;;;;;5.20;4.40;;;;;1.47;84.77;99476.56;5041093;28;8855;-54
2021/12/06 02:18:09;;;;;;;;;7.00;6.40;;;;;1.42;84.88;99471.56;5030979;28;8938;-54
2021/12/06 02:20:45;;;;;;;;;1.80;1.80;;;;;1.37;85.15;99481.41;5032373;28;8841;-54
2021/12/06 02:23:12;;;;;;;;;8.60;7.00;;;;;1.33;85.33;99479.88;5032113;28;8886;-54
2021/12/06 02:25:40;;;;;;;;;4.80;4.40;;;;;1.28;84.83;99481.06;5032205;28;8991;-54
2021/12/06 02:28:08;;;;;;;;;4.40;4.40;;;;;1.22;85.36;99478.72;5030403;28;8966;-54
2021/12/06 02:30:35;;;;;;;;;4.40;4.40;;;;;1.18;84.99;99482.41;5030188;28;8872;-54
2021/12/06 02:33:03;;;;;;;;;7.40;5.60;;;;;1.15;85.73;99493.06;5031195;28;8860;-54
2021/12/06 02:35:31;;;;;;;;;7.00;6.80;;;;;1.10;84.99;99495.03;5031618;28;9703;-54
2021/12/06 02:38:01;;;;;;;;;11.60;8.20;;;;;1.06;85.33;99502.22;5032430;28;8840;-54
2021/12/06 02:40:28;;;;;;;;;5.80;5.20;;;;;0.99;85.07;99506.03;5030439;28;8976;-54
2021/12/06 02:42:56;;;;;;;;;3.60;3.60;;;;;0.94;85.21;99500.19;5031205;28;8876;-54
2021/12/06 02:45:24;;;;;;;;;1.00;1.00;;;;;0.93;85.97;99505.50;5032162;28;8856;-54
2021/12/06 02:47:53;;;;;;;;;6.60;6.20;;;;;0.88;85.28;99503.09;5031611;28;8975;-54
2021/12/06 02:50:21;;;;;;;;;4.00;4.00;;;;;0.86;85.24;99497.06;5030619;28;8840;-54
2021/12/06 02:52:49;;;;;;;;;8.40;8.40;;;;;0.86;85.25;99502.31;5030473;28;8860;-54
2021/12/06 02:55:32;;;;;;;;;8.20;7.60;;;;;0.88;85.92;99505.72;5032243;28;8856;-54
2021/12/06 02:58:02;;;;;;;;;3.00;3.00;;;;;0.89;85.40;99515.28;5031296;28;9503;-54
2021/12/06 03:00:31;;;;;;;;;5.60;5.60;;;;;0.89;85.66;99504.81;5032416;28;8856;-54
2021/12/06 03:02:59;;;;;;;;;7.40;6.80;;;;;0.87;85.29;99506.66;5032940;28;8856;-54
2021/12/06 03:05:27;;;;;;;;;8.20;7.80;;;;;0.87;85.69;99501.41;5047575;28;9160;-54
2021/12/06 03:07:59;;;;;;;;;5.20;5.20;;;;;0.85;85.66;99495.38;5052306;28;8850;-54
2021/12/06 03:10:26;;;;;;;;;9.20;8.20;;;;;0.84;85.05;99501.53;5050494;28;8834;-54
2021/12/06 03:12:54;;;;;;;;;3.40;3.00;;;;;0.84;85.46;99509.41;5050743;28;9698;-55
2021/12/06 03:15:22;;;;;;;;;9.40;8.60;;;;;0.88;85.81;99510.97;5051385;28;8876;-54
2021/12/06 03:17:49;;;;;;;;;9.20;9.20;;;;;0.91;85.74;99508.19;5051339;28;9500;-54
2021/12/06 03:20:17;;;;;;;;;11.60;10.00;;;;;0.94;85.16;99510.69;5051467;28;9309;-54
2021/12/06 03:22:45;;;;;;;;;6.20;5.60;;;;;0.98;85.08;99517.47;5050256;28;8974;-54
2021/12/06 03:25:13;;;;;;;;;10.00;9.60;;;;;1.01;84.99;99516.47;5050469;28;9493;-54
2021/12/06 03:27:40;;;;;;;;;6.40;6.00;;;;;1.01;85.54;99527.78;5050993;28;8846;-54
2021/12/06 03:30:08;;;;;;;;;9.00;7.60;;;;;1.01;85.01;99526.94;5051466;28;8993;-54
2021/12/06 03:32:36;;;;;;;;;12.60;11.20;;;;;1.01;84.88;99530.41;5050314;28;8868;-54
2021/12/06 03:35:04;;;;;;;;;9.60;9.00;;;;;1.01;85.37;99532.19;5034205;28;8828;-54
2021/12/06 03:37:31;;;;;;;;;14.20;12.40;;;;;0.99;85.72;99544.53;5029030;28;8878;-55
2021/12/06 03:39:59;;;;;;;;;8.20;6.00;;;;;0.98;85.28;99543.66;5030727;28;8874;-54
2021/12/06 03:42:27;;;;;;;;;10.00;9.40;;;;;0.98;84.94;99543.66;5029013;28;8857;-54
2021/12/06 03:44:54;;;;;;;;;7.40;7.40;;;;;0.99;85.10;99544.53;5029721;28;8862;-54
2021/12/06 03:47:22;;;;;;;;;10.40;10.00;;;;;0.98;85.38;99548.06;5030839;28;8860;-54
2021/12/06 03:49:50;;;;;;;;;8.80;8.80;;;;;0.97;84.78;99556.84;5029317;28;9756;-54
2021/12/06 03:52:17;;;;;;;;;6.40;4.40;;;;;0.97;84.81;99557.69;5029308;28;8860;-54
2021/12/06 03:54:46;;;;;;;;;10.00;8.60;;;;;0.99;84.75;99571.56;5030163;28;9519;-54
2021/12/06 03:57:14;;;;;;;;;7.00;6.00;;;;;1.01;84.84;99559.22;5029898;28;8963;-54
2021/12/06 03:59:41;;;;;;;;;8.80;8.80;;;;;1.03;84.64;99562.66;5030529;28;8845;-55
2021/12/06 04:02:09;;;;;;;;;8.60;7.40;;;;;1.06;85.31;99565.13;5028656;28;8840;-54
2021/12/06 04:04:37;;;;;;;;;11.20;9.80;;;;;1.09;84.40;99570.22;5039878;28;8826;-54
2021/12/06 04:07:05;;;;;;;;;3.40;3.40;;;;;1.10;84.61;99579.78;5050427;28;8854;-54
2021/12/06 04:09:33;;;;;;;;;6.40;6.00;;;;;1.09;84.67;99572.84;5047814;28;8870;-54
2021/12/06 04:12:00;;;;;;;;;8.60;6.80;;;;;1.11;85.28;99573.63;5047781;28;8854;-54
2021/12/06 04:14:28;;;;;;;;;5.60;4.00;;;;;1.09;84.52;99580.72;5050211;28;8835;-54
2021/12/06 04:16:56;;;;;;;;;11.00;11.00;;;;;1.11;84.97;99576.25;5049408;28;8850;-54
2021/12/06 04:19:24;;;;;;;;;7.80;6.60;;;;;1.16;84.60;99581.25;5050117;28;8854;-55
2021/12/06 04:21:51;;;;;;;;;9.00;9.00;;;;;1.19;84.78;99575.84;5049144;28;8989;-54
2021/12/06 04:24:19;;;;;;;;;11.20;11.20;;;;;1.20;84.41;99569.69;5050263;28;8985;-54
2021/12/06 04:26:47;;;;;;;;;8.40;8.40;;;;;1.18;84.58;99572.41;5050088;28;8854;-54
2021/12/06 04:29:15;;;;;;;;;6.40;6.20;;;;;1.17;84.84;99580.34;5050472;28;9587;-54
2021/12/06 04:31:43;;;;;;;;;7.00;7.00;;;;;1.15;84.66;99587.44;5049953;28;8929;-54
2021/12/06 04:34:11;;;;;;;;;7.40;6.20;;;;;1.15;84.63;99593.50;5041733;28;8840;-54
2021/12/06 04:36:39;;;;;;;;;8.20;7.80;;;;;1.12;84.72;99591.03;5029587;28;8840;-54
2021/12/06 04:39:07;;;;;;;;;8.60;7.40;;;;;1.11;84.44;99593.72;5029064;28;8860;-54
2021/12/06 04:41:34;;;;;;;;;7.00;7.00;;;;;1.07;84.64;99595.63;5028821;28;8844;-54
2021/12/06 04:44:02;;;;;;;;;12.00;10.00;;;;;1.02;84.87;99605.50;5029299;28;8900;-54
2021/12/06 04:46:30;;;;;;;;;4.00;3.60;;;;;0.95;85.21;99611.97;5030489;28;8959;-54
2021/12/06 04:48:58;;;;;;;;;6.00;6.00;;;;;0.95;85.06;99604.09;5029412;28;8844;-54
2021/12/06 04:51:26;;;;;;;;;7.80;7.80;;;;;0.94;84.76;99607.66;5028550;28;8878;-54
2021/12/06 04:53:53;;;;;;;;;7.00;7.00;;;;;0.95;85.48;99611.09;5029521;28;8905;-54
2021/12/06 04:56:21;;;;;;;;;9.00;7.40;;;;;0.94;85.42;99620.75;5028745;28;8856;-54
2021/12/06 04:58:49;;;;;;;;;8.20;8.20;;;;;0.90;84.38;99613.06;5029365;28;8840;-54
2021/12/06 05:01:17;;;;;;;;;6.80;6.20;;;;;0.84;85.26;99619.44;5033583;28;8832;-54
2021/12/06 05:03:48;;;;;;;;;7.00;6.00;;;;;0.79;85.25;99629.31;5036954;28;8842;-54
2021/12/06 05:06:15;;;;;;;;;4.00;4.00;;;;;0.73;84.64;99633.94;5053112;28;8846;-54
2021/12/06 05:08:43;;;;;;;;;3.60;2.20;;;;;0.70;85.32;99631.50;5053578;28;8879;-54
2021/12/06 05:11:11;;;;;;;;;10.40;6.40;;;;;0.73;85.70;99642.69;5052833;28;8866;-54
2021/12/06 05:13:38;;;;;;;;;5.60;5.60;;;;;0.77;85.23;99648.63;5053496;28;9001;-53
2021/12/06 05:16:06;;;;;;;;;7.00;7.00;;;;;0.79;84.77;99647.66;5033329;28;8849;-54
2021/12/06 05:18:34;;;;;;;;;6.40;5.60;;;;;0.83;85.10;99653.59;5033531;28;8856;-54
2021/12/06 05:21:02;;;;;;;;;4.00;3.80;;;;;0.81;85.37;99651.03;5033512;28;8859;-54
2021/12/06 05:23:29;;;;;;;;;10.00;10.00;;;;;0.81;85.17;99651.03;5032582;28;8842;-54
2021/12/06 05:25:58;;;;;;;;;3.40;3.40;;;;;0.80;84.44;99651.09;5033463;28;8848;-54
2021/12/06 05:28:28;;;;;;;;;3.40;3.20;;;;;0.77;85.32;99649.47;5033812;28;8851;-54
2021/12/06 05:30:57;;;;;;;;;5.20;5.20;;;;;0.76;85.01;99649.56;5033670;28;9522;-54
2021/12/06 05:33:30;;;;;;;;;7.20;7.20;;;;;0.73;85.04;99647.06;5033209;28;8859;-54
2021/12/06 05:35:59;;;;;;;;;4.40;4.40;;;;;0.72;84.91;99655.84;5032683;28;8856;-54
2021/12/06 05:38:27;;;;;;;;;0.00;0.00;;;;;0.71;85.34;99659.38;5033913;28;8849;-54
2021/12/06 05:40:54;;;;;;;;;1.00;1.00;;;;;0.69;85.15;99666.47;5032528;28;9476;-54
2021/12/06 05:43:22;;;;;;;;;1.00;0.80;;;;;0.69;84.73;99669.09;5032138;28;8881;-53
2021/12/06 05:45:50;;;;;;;;;3.60;3.60;;;;;0.66;85.03;99666.56;5048167;28;8857;-53
2021/12/06 05:48:18;;;;;;;;;1.00;1.00;;;;;0.63;85.28;99671.97;5051569;28;8948;-54
2021/12/06 05:50:50;;;;;;;;;6.40;6.40;;;;;0.59;85.18;99673.88;5051921;28;8834;-54
2021/12/06 05:53:18;;;;;;;;;1.00;0.00;;;;;0.56;85.24;99673.16;5051836;28;8850;-53
2021/12/06 05:55:45;;;;;;;;;6.80;6.80;;;;;0.51;85.53;99681.22;5052205;28;8873;-53
2021/12/06 05:58:13;;;;;;;;;6.80;6.60;;;;;0.49;85.07;99682.19;5051959;28;8888;-53
2021/12/06 06:00:42;;;;;;;;;4.40;4.40;;;;;0.46;85.67;99687.56;5052286;28;8938;-54
2021/12/06 06:03:10;;;;;;;;;6.00;6.00;;;;;0.41;84.85;99693.00;5051451;28;8838;-53
2021/12/06 06:05:38;;;;;;;;;9.80;8.80;;;;;0.37;85.29;99691.44;5051439;28;8891;-53
2021/12/06 06:08:06;;;;;;;;;7.00;7.00;;;;;0.33;85.55;99695.06;5050498;28;8857;-53
2021/12/06 06:10:33;;;;;;;;;8.20;6.60;;;;;0.32;85.39;99693.38;5050565;28;8990;-54
2021/12/06 06:13:01;;;;;;;;;6.00;4.80;;;;;0.33;85.86;99696.84;5051836;28;8882;-53
2021/12/06 06:15:29;;;;;;;;;5.80;5.80;;;;;0.32;85.75;99701.22;5038124;28;8837;-54
2021/12/06 06:17:57;;;;;;;;;12.00;12.00;;;;;0.31;85.58;99699.53;5030026;28;8898;-54
2021/12/06 06:20:25;;;;;;;;;4.80;4.80;;;;;0.29;85.21;99692.66;5029189;28;8971;-53
2021/12/06 06:22:53;;;;;;;;;8.80;8.60;;;;;0.29;85.56;99704.00;5030712;28;8860;-54
2021/12/06 06:25:20;;;;;;;;;6.60;6.60;;;;;0.29;85.68;99704.00;5031670;28;8921;-53
2021/12/06 06:27:48;;;;;;;;;7.00;6.60;;;;;0.29;85.76;99705.75;5029371;28;8860;-54
2021/12/06 06:30:16;;;;;;;;;6.20;6.20;;;;;0.25;85.20;99707.63;5030349;28;8844;-53
2021/12/06 06:32:44;;;;;;;;;7.40;5.80;;;;;0.21;85.94;99700.84;5029315;28;8853;-54
2021/12/06 06:35:12;;;;;;;;;9.00;9.00;;;;;0.19;85.95;99700.06;5030370;28;8870;-53
2021/12/06 06:37:39;;;;;;;;;7.40;7.00;;;;;0.20;85.92;99706.13;5027110;28;8946;-54
2021/12/06 06:40:07;;;;;;;;;8.40;7.80;;;;;0.22;85.73;99707.78;5025720;28;8937;-54
2021/12/06 06:42:35;;;;;;;;;5.00;4.80;;;;;0.24;86.00;99711.19;5027340;28;8910;-54
2021/12/06 06:45:08;;;;;;;;;5.40;4.00;;;;;0.24;85.49;99716.41;5038562;28;8861;-54
2021/12/06 06:47:35;;;;;;;;;3.80;3.80;;;;;0.22;85.40;99705.16;5047161;28;8854;-53
2021/12/06 06:50:03;;;;;;;;;7.20;6.60;;;;;0.19;85.83;99715.78;5044923;28;9004;-54
2021/12/06 06:52:31;;;;;;;;;5.60;5.60;;;;;0.16;85.48;99718.50;5044770;28;8854;-54
2021/12/06 06:55:03;;;;;;;;;2.20;2.20;;;;;0.12;85.66;99716.06;5044339;28;8976;-54
2021/12/06 06:57:31;;;;;;;;;10.40;10.40;;;;;0.07;85.18;99723.25;5041130;28;8987;-53
2021/12/06 06:59:58;;;;;;;;;9.00;8.60;;;;;0.02;85.41;99725.22;5039742;28;8880;-53
2021/12/06 07:02:26;;;;;;;;;14.00;11.60;;;;;0.00;86.12;99722.66;5038980;28;8850;-54
2021/12/06 07:04:54;;;;;;;;;3.60;3.60;;;;;-0.02;85.60;99729.72;5039655;28;8861;-53
2021/12/06 07:07:22;;;;;;;;;6.40;6.40;;;;;-0.03;85.80;99737.63;5039866;28;8854;-53
2021/12/06 07:09:49;;;;;;;;;11.60;11.60;;;;;0.04;86.16;99734.72;5039877;28;9613;-53
2021/12/06 07:12:18;;;;;;;;;6.60;6.60;;;;;0.13;86.29;99742.19;5041158;28;8862;-53
2021/12/06 07:14:46;;;;;;;;;6.80;6.60;;;;;0.19;85.60;99738.47;5042186;28;8826;-53
2021/12/06 07:17:14;;;;;;;;;9.60;9.40;;;;;0.26;85.45;99747.78;5036931;28;8862;-54
2021/12/06 07:19:42;;;;;;;;;7.80;7.80;;;;;0.31;85.47;99744.03;5041107;28;8846;-54
2021/12/06 07:22:09;;;;;;;;;8.60;8.60;;;;;0.33;85.46;99744.81;5039058;28;9190;-53
2021/12/06 07:24:37;;;;;;;;;14.00;10.40;;;;;0.33;85.73;99744.81;5038913;28;9151;-54
2021/12/06 07:27:05;;;;;;;;;12.00;10.80;;;;;0.29;85.80;99740.63;5041650;28;8862;-53
2021/12/06 07:29:35;;;;;;;;;15.20;13.80;;;;;0.19;84.95;99741.09;5038566;28;9171;-53
2021/12/06 07:32:03;;;;;;;;;9.60;9.40;;;;;0.10;85.20;99744.91;5040514;28;8858;-54
2021/12/06 07:34:31;;;;;;;;;9.00;9.00;;;;;0.03;85.33;99738.22;5042104;28;8968;-54
2021/12/06 07:36:59;;;;;;;;;10.00;9.60;;;;;-0.03;85.06;99729.78;5040987;28;8850;-54
2021/12/06 07:39:27;;;;;;;;;3.00;3.00;;;;;-0.08;85.33;99724.75;5040375;28;9169;-54
2021/12/06 07:41:54;;;;;;;;;15.80;13.80;;;;;-0.13;85.16;99714.50;5042325;28;8885;-54
2021/12/06 07:44:22;;;;;;;;;7.80;6.00;;;;;-0.22;85.45;99725.34;5037892;28;9182;-54
2021/12/06 07:46:52;;;;;;;;;11.60;9.80;;;;;-0.32;85.40;99724.03;5040431;28;8877;-54
2021/12/06 07:49:20;;;;;;;;;6.40;6.40;;;;;-0.37;85.88;99716.38;5040272;28;8988;-54
2021/12/06 07:51:47;;;;;;;;;9.20;9.20;;;;;-0.40;85.99;99719.09;5037672;28;8858;-54
2021/12/06 07:54:15;;;;;;;;;4.80;4.20;;;;;-0.39;86.25;99712.94;5038404;28;9550;-54
2021/12/06 07:56:43;;;;;;;;;12.00;10.00;;;;;-0.36;85.86;99731.16;5036611;28;8900;-54
2021/12/06 07:59:14;;;;;;;;;10.00;9.00;;;;;-0.34;85.98;99731.94;5037430;28;8870;-54
2021/12/06 08:01:42;;;;;;;;;8.20;7.80;;;;;-0.35;86.23;99735.47;5037893;28;8912;-54
2021/12/06 08:04:10;;;;;;;;;3.00;3.00;;;;;-0.38;85.75;99732.09;5038499;28;8861;-54
2021/12/06 08:06:38;;;;;;;;;6.80;6.00;;;;;-0.39;86.03;99738.25;5034124;28;8854;-54
2021/12/06 08:09:06;;;;;;;;;0.40;0.40;;;;;-0.33;85.89;99736.25;5039446;28;8854;-54
2021/12/06 08:11:34;;;;;;;;;6.40;6.40;;;;;-0.28;86.03;99729.06;5035449;28;8870;-54
2021/12/06 08:14:01;;;;;;;;;9.00;7.80;;;;;-0.25;85.91;99728.09;5038081;28;8874;-54
2021/12/06 08:16:29;;;;;;;;;6.00;6.00;;;;;-0.25;85.95;99735.94;5037670;28;8850;-53
2021/12/06 08:18:59;;;;;;;;;7.40;6.00;;;;;-0.26;85.75;99731.59;5037615;28;9119;-54
2021/12/06 08:21:26;;;;;;;;;7.20;6.00;;;;;-0.26;85.89;99729.84;5037648;28;9547;-54
2021/12/06 08:23:54;;;;;;;;;5.20;4.80;;;;;-0.23;86.13;99729.72;5037565;28;8900;-54
2021/12/06 08:26:22;;;;;;;;;1.80;1.00;;;;;-0.14;85.90;99728.50;5039302;28;8847;-54
2021/12/06 08:28:49;;;;;;;;;6.40;5.80;;;;;-0.05;86.16;99729.00;5036188;28;8842;-54
2021/12/06 08:31:18;;;;;;;;;6.80;6.20;;;;;0.02;86.05;99725.22;5036791;28;8846;-54
2021/12/06 08:33:46;;;;;;;;;7.00;6.40;;;;;0.05;85.29;99723.34;5036537;28;9009;-54
2021/12/06 08:36:14;;;;;;;;;6.00;6.00;;;;;0.08;85.24;99720.59;5036195;28;8881;-54
2021/12/06 08:38:41;;;;;;;;;5.40;5.20;;;;;0.11;85.49;99723.09;5036770;28;8874;-54
2021/12/06 08:41:09;;;;;;;;;7.00;6.40;;;;;0.11;85.71;99715.25;5030676;28;8981;-54
2021/12/06 08:43:37;;;;;;;;;6.40;4.00;;;;;0.14;85.82;99716.84;5036692;28;9174;-54
2021/12/06 08:46:11;;;;;;;;;8.00;7.00;;;;;0.17;85.57;99714.13;5038737;28;9692;-54
2021/12/06 08:48:39;;;;;;;;;8.80;8.80;;;;;0.22;85.37;99715.63;5037803;28;8858;-54
2021/12/06 08:51:07;;;;;;;;;4.60;4.40;;;;;0.29;85.59;99714.47;5037372;28;8854;-54
2021/12/06 08:53:34;;;;;;;;;5.40;5.20;;;;;0.34;85.04;99715.13;5036771;28;8856;-54
2021/12/06 08:56:02;;;;;;;;;3.80;3.80;;;;;0.39;85.04;99715.75;5036326;28;9197;-54
2021/12/06 08:58:30;;;;;;;;;5.20;4.00;;;;;0.47;85.13;99708.44;5034014;28;8965;-54
2021/12/06 09:00:58;;;;;;;;;7.60;4.80;;;;;0.51;85.19;99715.25;5035688;28;8866;-54
2021/12/06 09:03:26;;;;;;;;;4.60;4.60;;;;;0.55;85.17;99716.81;5030956;28;8850;-54
2021/12/06 09:05:54;;;;;;;;;6.60;5.60;;;;;0.63;84.74;99719.94;5033202;28;8854;-54
2021/12/06 09:08:23;;;;;;;;;6.60;6.60;;;;;0.69;84.39;99724.09;5035304;28;8854;-54
2021/12/06 09:10:52;;;;;;;;;6.80;6.80;;;;;0.74;84.31;99728.22;5033597;28;9166;-54
2021/12/06 09:13:19;;;;;;;;;9.80;8.60;;;;;0.86;84.45;99727.66;5035392;28;8878;-54
2021/12/06 09:15:47;;;;;;;;;2.60;1.80;;;;;0.97;84.13;99725.41;5034989;28;8868;-54
2021/12/06 09:18:15;;;;;;;;;7.00;6.40;;;;;1.07;84.52;99736.34;5035926;28;8884;-54
2021/12/06 09:20:42;;;;;;;;;6.60;5.20;;;;;1.16;83.82;99735.94;5037215;28;8866;-54
2021/12/06 09:23:11;;;;;;;;;6.20;6.20;;;;;1.23;83.47;99737.38;5033273;28;9110;-54
2021/12/06 09:25:39;;;;;;;;;3.00;3.00;;;;;1.28;83.60;99736.22;5035981;28;8927;-55
2021/12/06 09:28:07;;;;;;;;;10.00;9.60;;;;;1.34;83.65;99740.34;5034054;28;9226;-54
2021/12/06 09:30:35;;;;;;;;;11.20;9.40;;;;;1.37;83.18;99741.03;5034091;28;8854;-54
2021/12/06 09:33:03;;;;;;;;;6.20;6.00;;;;;1.45;83.74;99743.34;5033631;28;8858;-54
2021/12/06 09:35:34;;;;;;;;;4.40;3.20;;;;;1.50;83.78;99736.06;5034400;28;9712;-54
2021/12/06 09:38:02;;;;;;;;;9.80;9.20;;;;;1.60;83.10;99730.34;5033277;28;8854;-54
2021/12/06 09:40:30;;;;;;;;;9.80;7.00;;;;;1.81;82.74;99731.13;5034179;28;8838;-54
2021/12/06 09:42:58;;;;;;;;;7.80;6.80;;;;;2.08;81.62;99730.63;5036542;28;8917;-54
2021/12/06 09:45:26;;;;;;;;;9.00;9.00;;;;;2.37;81.48;99722.16;5038448;28;8862;-54
2021/12/06 09:47:54;;;;;;;;;5.20;5.20;;;;;2.64;80.56;99722.53;5041952;28;9520;-54
2021/12/06 09:50:24;;;;;;;;;9.40;9.20;;;;;2.95;80.20;99722.66;5040761;28;8866;-54
2021/12/06 09:52:54;;;;;;;;;7.00;6.60;;;;;3.41;79.14;99712.19;5039777;28;9493;-54
2021/12/06 09:55:22;;;;;;;;;6.80;6.00;;;;;4.04;77.65;99698.09;5039878;28;8861;-54
2021/12/06 09:57:50;;;;;;;;;9.60;8.20;;;;;4.67;76.87;99691.69;5041722;28;8834;-54
2021/12/06 10:00:18;;;;;;;;;6.00;6.00;;;;;5.25;75.77;99682.75;5043426;28;9228;-54
2021/12/06 10:02:46;;;;;;;;;9.20;7.60;;;;;5.93;75.42;99679.25;5041478;28;8858;-54
2021/12/06 10:05:14;;;;;;;;;12.00;10.80;;;;;6.78;74.28;99669.09;5039546;28;8850;-54
2021/12/06 10:07:41;;;;;;;;;7.80;7.40;;;;;7.69;72.72;99668.63;5039713;28;8958;-54
2021/12/06 10:10:10;;;;;;;;;6.80;6.20;;;;;8.57;71.66;99660.28;5038741;28;9187;-54
2021/12/06 10:12:37;;;;;;;;;9.00;7.00;;;;;9.38;70.08;99643.22;5040081;28;8988;-55
2021/12/06 10:15:05;;;;;;;;;7.40;6.00;;;;;10.02;69.00;99634.41;5038645;28;9000;-55
2021/12/06 10:17:34;;;;;;;;;5.20;5.20;;;;;10.03;69.13;99639.63;5039588;28;8865;-55
2021/12/06 10:20:01;;;;;;;;;10.50;9.00;;;;;9.64;70.26;99640.16;5036670;28;8992;-55
2021/12/06 10:22:29;;;;;;;;;12.50;9.50;;;;;9.18;72.09;99655.44;5037573;28;8863;-55
2021/12/06 10:24:57;;;;;;;;;8.50;8.50;;;;;9.09;73.00;99648.19;5036418;28;8884;-55
2021/12/06 10:27:43;;;;;;;;;9.50;9.25;;;;;9.54;72.60;99649.00;5038627;28;9609;-55
2021/12/06 10:30:11;;;;;;;;;5.50;4.00;;;;;10.11;71.45;99646.97;5038547;28;8981;-55
2021/12/06 10:32:41;;;;;;;;;10.50;9.50;;;;;10.83;69.96;99652.31;5036771;28;8893;-55
2021/12/06 10:35:09;;;;;;;;;10.00;9.00;;;;;11.56;68.79;99644.94;5037268;28;8866;-55
2021/12/06 10:37:37;;;;;;;;;9.75;9.75;;;;;12.17;67.69;99642.00;5039969;28;8856;-55
2021/12/06 10:40:06;;;;;;;;;13.00;12.50;;;;;12.68;66.53;99647.91;5035215;28;8866;-55
2021/12/06 10:42:34;;;;;;;;;8.25;8.25;;;;;13.18;65.67;99649.38;5037521;28;8874;-55
2021/12/06 10:45:01;;;;;;;;;7.50;6.75;;;;;13.45;66.06;99633.34;5040052;28;8846;-55
2021/12/06 10:47:29;;;;;;;;;14.50;12.50;;;;;13.54;65.81;99648.53;5036457;28;8866;-56
2021/12/06 10:49:57;;;;;;;;;18.00;15.75;;;;;13.47;66.34;99630.53;5037268;28;8854;-55
2021/12/06 10:52:24;;;;;;;;;11.50;9.25;;;;;13.08;66.87;99639.69;5036245;28;8857;-55
2021/12/06 10:54:53;;;;;;;;;13.00;12.75;;;;;12.65;68.56;99642.84;5035759;28;8980;-55
2021/12/06 10:57:21;;;;;;;;;15.50;14.75;;;;;12.30;69.13;99637.22;5036495;28;9194;-55
2021/12/06 10:59:49;;;;;;;;;15.75;15.00;;;;;12.26;68.87;99629.66;5036648;28;8850;-55
2021/12/06 11:02:18;;;;;;;;;14.00;14.00;;;;;12.49;68.51;99628.38;5033387;28;9054;-55
2021/12/06 11:04:47;;;;;;;;;12.50;11.00;;;;;12.75;67.92;99619.63;5036345;28;9148;-55
2021/12/06 11:07:15;;;;;;;;;11.50;11.00;;;;;13.00;67.97;99621.69;5039520;28;8988;-55
2021/12/06 11:09:43;;;;;;;;;12.25;11.50;;;;;12.94;67.76;99624.09;5035586;28;9135;-55
2021/12/06 11:12:11;;;;;;;;;15.75;15.50;;;;;12.80;68.83;99622.72;5035367;28;8896;-55
2021/12/06 11:14:39;;;;;;;;;6.75;6.75;;;;;12.74;68.78;99622.44;5037616;28;8880;-55
2021/12/06 11:17:07;;;;;;;;;10.00;6.75;;;;;12.59;69.70;99610.50;5034514;28;9298;-55
2021/12/06 11:19:34;;;;;;;;;17.00;15.25;;;;;12.50;70.31;99617.56;5036743;28;8858;-54
2021/12/06 11:22:02;;;;;;;;;18.25;17.00;;;;;12.48;70.13;99611.53;5033746;28;8865;-54
2021/12/06 11:24:30;;;;;;;;;12.00;11.00;;;;;12.44;70.32;99612.78;5034321;28;8868;-55
2021/12/06 11:26:58;;;;;;;;;16.50;16.25;;;;;12.28;70.16;99606.31;5034538;28;9136;-55
2021/12/06 11:29:25;;;;;;;;;8.50;6.75;;;;;12.14;71.16;99602.25;5037531;28;9156;-54
2021/12/06 11:31:53;;;;;;;;;13.50;12.25;;;;;12.16;70.78;99607.44;5038175;28;8869;-55
2021/12/06 11:34:21;;;;;;;;;13.50;11.25;;;;;12.20;70.77;99616.84;5037391;28;8850;-54
2021/12/06 11:36:51;;;;;;;;;15.50;14.00;;;;;12.21;70.93;99599.84;5035261;28;9175;-55
2021/12/06 11:39:20;;;;;;;;;9.50;8.00;;;;;12.10;71.15;99608.00;5037875;28;9246;-55
2021/12/06 11:41:48;;;;;;;;;10.00;10.00;;;;;11.91;72.20;99609.81;5031924;28;8866;-55
2021/12/06 11:44:16;;;;;;;;;12.00;11.75;;;;;11.88;71.33;99596.72;5035540;28;9539;-54
2021/12/06 11:46:44;;;;;;;;;9.75;9.50;;;;;11.41;72.51;99602.78;5032669;28;8977;-54
2021/12/06 11:49:12;;;;;;;;;14.00;13.00;;;;;10.45;73.99;99608.59;5032733;28;8854;-54
2021/12/06 11:51:39;;;;;;;;;11.50;10.00;;;;;9.49;76.04;99609.50;5034223;28;9124;-54
2021/12/06 11:54:07;;;;;;;;;9.25;7.50;;;;;9.04;77.28;99610.50;5032516;28;8862;-58